createdAt,value
2023-01-03T00:00:09.892Z,1.20
2023-01-03T00:02:58.343Z,1.80
2023-01-03T00:05:26.785Z,1.20
2023-01-03T00:07:55.154Z,3.00
2023-01-03T00:10:23.593Z,1.60
2023-01-03T00:12:52.095Z,2.40
2023-01-03T00:15:20.527Z,1.50
2023-01-03T00:17:48.871Z,1.80
2023-01-03T00:20:17.257Z,1.20
2023-01-03T00:22:45.669Z,1.90
2023-01-03T00:25:13.986Z,2.70
2023-01-03T00:27:42.343Z,1.00
2023-01-03T00:30:11.162Z,1.00
2023-01-03T00:32:39.554Z,1.40
2023-01-03T00:35:08.360Z,1.10
2023-01-03T00:37:36.767Z,1.20
2023-01-03T00:40:05.588Z,3.10
2023-01-03T00:42:53.875Z,1.60
2023-01-03T00:45:25.426Z,1.20
2023-01-03T00:47:54.232Z,2.50
2023-01-03T00:50:22.631Z,2.10
2023-01-03T00:52:50.993Z,1.50
2023-01-03T00:55:19.432Z,2.10
2023-01-03T00:57:47.742Z,1.10
2023-01-03T01:00:16.339Z,1.00
2023-01-03T01:02:44.776Z,1.00
2023-01-03T01:05:13.315Z,1.60
2023-01-03T01:07:41.679Z,2.30
2023-01-03T01:10:10.178Z,2.40
2023-01-03T01:12:38.519Z,1.50
2023-01-03T01:15:07.461Z,1.30
2023-01-03T01:17:35.869Z,3.20
2023-01-03T01:20:05.119Z,1.20
2023-01-03T01:22:36.319Z,1.70
2023-01-03T01:25:04.957Z,1.40
2023-01-03T01:27:33.293Z,1.20
2023-01-03T01:30:01.663Z,1.50
2023-01-03T01:32:31.201Z,1.50
2023-01-03T01:34:59.562Z,2.00
2023-01-03T01:37:27.925Z,1.40
2023-01-03T01:39:56.394Z,2.70
2023-01-03T01:42:43.704Z,1.70
2023-01-03T01:45:15.369Z,1.90
2023-01-03T01:47:52.605Z,1.80
2023-01-03T01:50:45.272Z,1.50
2023-01-03T01:53:21.075Z,1.20
2023-01-03T01:56:01.035Z,1.00
2023-01-03T01:58:37.280Z,1.30
2023-01-03T02:01:10.007Z,2.10
2023-01-03T02:03:39.196Z,2.10
2023-01-03T02:06:10.074Z,1.20
2023-01-03T02:08:38.562Z,1.60
2023-01-03T02:11:28.509Z,1.30
2023-01-03T02:14:15.326Z,1.50
2023-01-03T02:17:00.401Z,1.60
2023-01-03T02:19:57.135Z,1.10
2023-01-03T02:22:53.873Z,1.80
2023-01-03T02:25:50.866Z,2.00
2023-01-03T02:28:50.907Z,1.70
2023-01-03T02:31:34.443Z,1.50
2023-01-03T02:34:24.363Z,2.20
2023-01-03T02:37:11.774Z,4.30
2023-01-03T02:40:11.412Z,3.10
2023-01-03T02:42:59.093Z,2.70
2023-01-03T02:45:39.346Z,2.00
2023-01-03T02:48:13.053Z,2.00
2023-01-03T02:50:48.731Z,1.60
2023-01-03T02:53:26.133Z,2.50
2023-01-03T02:55:58.926Z,2.10
2023-01-03T02:58:32.025Z,1.70
2023-01-03T03:01:03.439Z,2.30
2023-01-03T03:03:38.831Z,2.50
2023-01-03T03:06:27.207Z,2.00
2023-01-03T03:08:56.914Z,3.20
2023-01-03T03:11:48.783Z,4.20
2023-01-03T03:14:29.810Z,5.90
2023-01-03T03:17:04.100Z,5.90
2023-01-03T03:19:54.095Z,8.40
2023-01-03T03:23:10.903Z,7.70
2023-01-03T03:26:03.657Z,6.20
2023-01-03T03:28:36.606Z,6.00
2023-01-03T03:31:14.135Z,5.20
2023-01-03T03:34:01.065Z,5.10
2023-01-03T03:36:35.450Z,5.70
2023-01-03T03:39:06.681Z,5.20
2023-01-03T03:42:09.841Z,5.50
2023-01-03T03:45:02.621Z,4.10
2023-01-03T03:47:46.334Z,5.60
2023-01-03T03:50:29.834Z,4.70
2023-01-03T03:53:02.439Z,6.20
2023-01-03T03:55:42.358Z,5.50
2023-01-03T03:58:22.466Z,6.60
2023-01-03T04:00:52.539Z,4.40
2023-01-03T04:03:23.195Z,6.70
2023-01-03T04:05:58.169Z,4.00
2023-01-03T04:08:26.915Z,4.20
2023-01-03T04:11:06.313Z,4.00
2023-01-03T04:13:39.196Z,7.50
2023-01-03T04:16:08.121Z,4.90
2023-01-03T04:18:36.611Z,5.20
2023-01-03T04:21:05.000Z,4.10
2023-01-03T04:23:33.424Z,4.40
2023-01-03T04:26:01.816Z,3.90
2023-01-03T04:28:30.165Z,5.30
2023-01-03T04:30:58.614Z,4.40
2023-01-03T04:33:26.955Z,4.30
2023-01-03T04:35:55.377Z,5.00
2023-01-03T04:38:23.749Z,5.80
2023-01-03T04:40:52.096Z,4.00
2023-01-03T04:43:39.225Z,6.40
2023-01-03T04:46:07.670Z,6.10
2023-01-03T04:48:36.289Z,3.10
2023-01-03T04:51:04.724Z,3.30
2023-01-03T04:53:33.204Z,4.70
2023-01-03T04:56:01.679Z,4.40
2023-01-03T04:58:30.121Z,5.30
2023-01-03T05:01:03.651Z,3.00
2023-01-03T05:03:32.113Z,5.00
2023-01-03T05:06:02.871Z,5.50
2023-01-03T05:08:31.481Z,6.00
2023-01-03T05:10:59.899Z,2.80
2023-01-03T05:13:28.287Z,3.70
2023-01-03T05:15:56.634Z,7.90
2023-01-03T05:18:25.070Z,3.50
2023-01-03T05:21:11.933Z,4.30
2023-01-03T05:23:58.829Z,4.60
2023-01-03T05:26:27.249Z,3.90
2023-01-03T05:28:56.144Z,5.90
2023-01-03T05:31:24.587Z,6.20
2023-01-03T05:33:53.064Z,5.20
2023-01-03T05:36:21.949Z,5.60
2023-01-03T05:38:50.234Z,5.20
2023-01-03T05:41:38.545Z,4.00
2023-01-03T05:44:07.539Z,8.60
2023-01-03T05:46:36.052Z,5.50
2023-01-03T05:49:04.516Z,5.20
2023-01-03T05:51:32.906Z,4.50
2023-01-03T05:54:01.264Z,4.10
2023-01-03T05:56:31.918Z,5.40
2023-01-03T05:59:01.160Z,7.90
2023-01-03T06:01:29.640Z,5.20
2023-01-03T06:03:58.156Z,7.20
2023-01-03T06:06:26.733Z,5.60
2023-01-03T06:08:55.315Z,4.50
2023-01-03T06:11:27.066Z,6.80
2023-01-03T06:13:55.505Z,5.80
2023-01-03T06:16:42.832Z,4.90
2023-01-03T06:19:11.342Z,8.40
2023-01-03T06:21:41.964Z,8.20
2023-01-03T06:24:10.639Z,7.90
2023-01-03T06:26:38.970Z,6.40
2023-01-03T06:29:08.087Z,8.90
2023-01-03T06:31:36.532Z,6.40
2023-01-03T06:34:04.964Z,6.20
2023-01-03T06:36:34.676Z,6.60
2023-01-03T06:39:03.470Z,5.60
2023-01-03T06:41:31.851Z,5.10
2023-01-03T06:44:00.212Z,5.90
2023-01-03T06:46:47.843Z,5.50
2023-01-03T06:49:37.133Z,6.40
2023-01-03T06:52:31.085Z,5.40
2023-01-03T06:54:59.508Z,4.40
2023-01-03T06:57:27.905Z,5.80
2023-01-03T06:59:56.287Z,4.20
2023-01-03T07:02:25.339Z,6.90
2023-01-03T07:04:54.047Z,5.80
2023-01-03T07:07:22.513Z,5.40
2023-01-03T07:09:50.993Z,3.40
2023-01-03T07:12:38.877Z,6.10
2023-01-03T07:15:07.758Z,3.90
2023-01-03T07:17:36.196Z,6.60
2023-01-03T07:20:04.783Z,4.50
2023-01-03T07:22:33.123Z,6.00
2023-01-03T07:25:01.407Z,8.60
2023-01-03T07:27:29.743Z,7.50
2023-01-03T07:29:58.063Z,4.20
2023-01-03T07:32:26.465Z,5.90
2023-01-03T07:34:54.871Z,4.90
2023-01-03T07:37:23.275Z,5.00
2023-01-03T07:39:51.685Z,7.90
2023-01-03T07:42:38.703Z,5.10
2023-01-03T07:45:08.213Z,4.40
2023-01-03T07:47:36.585Z,3.00
2023-01-03T07:50:05.264Z,3.70
2023-01-03T07:52:33.572Z,4.50
2023-01-03T07:55:01.957Z,4.90
2023-01-03T07:57:30.365Z,4.40
2023-01-03T07:59:58.806Z,4.50
2023-01-03T08:02:27.383Z,3.80
2023-01-03T08:04:56.101Z,3.70
2023-01-03T08:07:24.610Z,4.30
2023-01-03T08:10:30.125Z,5.10
2023-01-03T08:13:17.340Z,3.40
2023-01-03T08:15:52.244Z,4.30
2023-01-03T08:18:28.831Z,6.10
2023-01-03T08:20:57.842Z,4.80
2023-01-03T08:23:27.519Z,4.50
2023-01-03T08:26:13.897Z,3.80
2023-01-03T08:28:43.645Z,4.40
2023-01-03T08:31:29.063Z,3.00
2023-01-03T08:34:06.438Z,4.40
2023-01-03T08:36:44.044Z,5.10
2023-01-03T08:41:48.608Z,3.80
2023-01-03T08:44:17.223Z,3.40
2023-01-03T08:46:51.912Z,3.80
2023-01-03T08:49:21.800Z,5.30
2023-01-03T08:51:50.496Z,4.90
2023-01-03T08:54:19.201Z,3.20
2023-01-03T08:56:47.820Z,3.50
2023-01-03T08:59:16.457Z,4.50
2023-01-03T09:01:45.363Z,2.90
2023-01-03T09:04:14.419Z,5.70
2023-01-03T09:06:43.238Z,4.90
2023-01-03T09:09:12.997Z,3.30
2023-01-03T09:11:41.587Z,6.80
2023-01-03T09:14:10.366Z,4.30
2023-01-03T09:16:42.729Z,2.80
2023-01-03T09:19:14.203Z,3.50
2023-01-03T09:21:42.876Z,8.10
2023-01-03T09:24:11.522Z,3.80
2023-01-03T09:26:40.567Z,5.20
2023-01-03T09:29:09.199Z,3.50
2023-01-03T09:31:39.923Z,5.20
2023-01-03T09:34:09.024Z,6.20
2023-01-03T09:36:39.036Z,3.70
2023-01-03T09:39:08.081Z,3.10
2023-01-03T09:41:39.705Z,3.60
2023-01-03T09:44:09.579Z,3.50
2023-01-03T09:46:38.657Z,6.50
2023-01-03T09:49:07.713Z,6.20
2023-01-03T09:51:59.162Z,3.40
2023-01-03T09:54:51.016Z,5.20
2023-01-03T09:57:44.325Z,3.20
2023-01-03T10:00:37.410Z,4.30
2023-01-03T10:03:51.640Z,5.10
2023-01-03T10:06:44.028Z,2.20
2023-01-03T10:09:43.536Z,2.70
2023-01-03T10:12:46.380Z,5.10
2023-01-03T10:15:18.554Z,5.50
2023-01-03T10:18:17.321Z,3.40
2023-01-03T10:20:53.521Z,3.40
2023-01-03T10:23:22.257Z,4.90
2023-01-03T10:25:52.473Z,5.50
2023-01-03T10:28:27.051Z,5.50
2023-01-03T10:31:08.832Z,4.40
2023-01-03T10:33:39.295Z,2.90
2023-01-03T10:36:09.063Z,5.60
2023-01-03T10:38:46.278Z,5.60
2023-01-03T10:41:30.739Z,3.90
2023-01-03T10:44:01.798Z,5.30
2023-01-03T10:46:31.844Z,4.30
2023-01-03T10:49:28.044Z,3.80
2023-01-03T10:52:31.309Z,4.50
2023-01-03T10:55:02.681Z,4.30
2023-01-03T10:57:59.255Z,5.20
2023-01-03T11:00:32.444Z,3.60
2023-01-03T11:03:10.527Z,3.00
2023-01-03T11:05:42.362Z,2.90
2023-01-03T11:08:21.178Z,2.80
2023-01-03T11:11:28.785Z,4.70
2023-01-03T11:14:28.060Z,5.10
2023-01-03T11:17:01.159Z,4.40
2023-01-03T11:19:34.649Z,4.50
2023-01-03T11:22:05.351Z,3.20
2023-01-03T11:24:52.785Z,6.20
2023-01-03T11:27:47.335Z,7.20
2023-01-03T11:30:19.817Z,4.20
2023-01-03T11:33:27.400Z,5.50
2023-01-03T11:36:14.079Z,5.30
2023-01-03T11:38:48.646Z,5.00
2023-01-03T11:41:46.415Z,6.40
2023-01-03T11:44:49.994Z,4.80
2023-01-03T11:47:18.834Z,4.20
2023-01-03T11:50:14.370Z,2.90
2023-01-03T11:53:11.416Z,3.70
2023-01-03T11:56:01.435Z,3.60
2023-01-03T11:58:38.636Z,4.30
2023-01-03T12:01:22.350Z,4.00
2023-01-03T12:04:30.897Z,6.20
2023-01-03T12:07:46.616Z,5.50
2023-01-03T12:10:10.554Z,4.80
2023-01-03T12:13:07.207Z,3.30
2023-01-03T12:15:56.968Z,5.10
2023-01-03T12:18:38.049Z,3.20
2023-01-03T12:21:30.851Z,3.00
2023-01-03T12:24:08.351Z,2.30
2023-01-03T12:26:42.093Z,3.90
2023-01-03T12:29:21.164Z,2.40
2023-01-03T12:32:01.165Z,1.70
2023-01-03T12:34:55.990Z,5.10
2023-01-03T12:37:30.401Z,5.00
2023-01-03T12:40:06.049Z,3.80
2023-01-03T12:42:51.645Z,3.10
2023-01-03T12:45:34.574Z,5.30
2023-01-03T12:48:09.578Z,2.70
2023-01-03T12:50:47.774Z,2.20
2023-01-03T12:53:47.135Z,5.90
2023-01-03T12:57:12.717Z,3.60
2023-01-03T13:00:12.446Z,3.10
2023-01-03T13:02:56.020Z,3.80
2023-01-03T13:05:42.937Z,2.80
2023-01-03T13:08:26.936Z,3.80
2023-01-03T13:11:33.473Z,4.80
2023-01-03T13:14:16.192Z,4.50
2023-01-03T13:16:52.738Z,3.10
2023-01-03T13:19:24.332Z,4.90
2023-01-03T13:21:55.749Z,2.60
2023-01-03T13:24:46.955Z,3.50
2023-01-03T13:27:21.211Z,4.00
2023-01-03T13:29:49.869Z,3.10
2023-01-03T13:32:24.245Z,3.50
2023-01-03T13:34:58.775Z,2.20
2023-01-03T13:37:29.705Z,3.70
2023-01-03T13:40:01.034Z,5.70
2023-01-03T13:42:39.870Z,5.60
2023-01-03T13:45:11.476Z,3.80
2023-01-03T13:47:51.757Z,4.20
2023-01-03T13:50:29.640Z,4.90
2023-01-03T13:52:58.404Z,4.50
2023-01-03T13:55:54.857Z,4.90
2023-01-03T13:58:43.513Z,5.20
2023-01-03T14:01:27.839Z,3.90
2023-01-03T14:07:01.889Z,2.40
2023-01-03T14:10:04.599Z,3.70
2023-01-03T14:12:51.555Z,2.90
2023-01-03T14:15:26.414Z,6.50
2023-01-03T14:18:00.137Z,4.00
2023-01-03T14:20:37.114Z,4.60
2023-01-03T14:23:31.581Z,6.20
2023-01-03T14:26:06.891Z,4.80
2023-01-03T14:28:35.459Z,4.20
2023-01-03T14:31:08.472Z,4.30
2023-01-03T14:33:39.042Z,4.20
2023-01-03T14:36:14.024Z,5.60
2023-01-03T14:38:57.221Z,6.90
2023-01-03T14:41:30.056Z,4.80
2023-01-03T14:44:09.552Z,4.90
2023-01-03T14:46:40.722Z,7.30
2023-01-03T14:49:46.801Z,7.20
2023-01-03T14:52:31.187Z,6.70
2023-01-03T14:57:38.332Z,4.90
2023-01-03T15:00:11.066Z,7.30
2023-01-03T15:02:41.571Z,6.20
2023-01-03T15:05:32.859Z,3.70
2023-01-03T15:08:25.684Z,5.60
2023-01-03T15:11:10.547Z,8.50
2023-01-03T15:13:48.181Z,7.20
2023-01-03T15:16:34.349Z,5.30
2023-01-03T15:19:27.546Z,5.80
2023-01-03T15:22:09.122Z,6.70
2023-01-03T15:24:46.547Z,7.90
2023-01-03T15:27:37.019Z,7.70
2023-01-03T15:30:24.880Z,8.70
2023-01-03T15:32:55.069Z,11.10
2023-01-03T15:35:32.109Z,11.10
2023-01-03T15:38:03.000Z,6.90
2023-01-03T15:40:32.114Z,8.30
2023-01-03T15:43:24.783Z,11.20
2023-01-03T15:46:15.238Z,9.90
2023-01-03T15:48:52.510Z,10.70
2023-01-03T15:51:21.125Z,8.30
2023-01-03T15:53:49.648Z,11.30
2023-01-03T15:56:21.302Z,16.60
2023-01-03T15:58:52.451Z,14.50
2023-01-03T16:01:22.287Z,12.60
2023-01-03T16:03:52.651Z,17.20
2023-01-03T16:06:21.493Z,7.30
2023-01-03T16:08:50.336Z,9.40
2023-01-03T16:11:57.285Z,11.30
2023-01-03T16:14:34.350Z,9.80
2023-01-03T16:17:04.480Z,10.80
2023-01-03T16:19:33.987Z,7.70
2023-01-03T16:24:54.361Z,9.40
2023-01-03T16:27:25.404Z,11.60
2023-01-03T16:29:54.059Z,14.40
2023-01-03T16:32:28.990Z,11.00
2023-01-03T16:35:01.251Z,14.10
2023-01-03T16:37:29.820Z,13.90
2023-01-03T16:39:58.891Z,11.80
2023-01-03T16:42:28.033Z,16.80
2023-01-03T16:44:56.756Z,14.40
2023-01-03T16:47:35.239Z,17.40
2023-01-03T16:50:13.497Z,18.00
2023-01-03T16:52:46.758Z,18.00
2023-01-03T16:55:41.407Z,19.40
2023-01-03T17:00:41.731Z,18.70
2023-01-03T17:03:10.335Z,18.60
2023-01-03T17:05:39.778Z,26.50
2023-01-03T17:08:25.286Z,21.10
2023-01-03T17:10:57.583Z,19.80
2023-01-03T17:13:34.146Z,19.00
2023-01-03T17:16:05.117Z,22.20
2023-01-03T17:18:38.888Z,17.20
2023-01-03T17:21:24.894Z,18.20
2023-01-03T17:23:57.608Z,19.50
2023-01-03T17:26:27.712Z,22.40
2023-01-03T17:28:56.571Z,23.10
2023-01-03T17:31:26.233Z,18.90
2023-01-03T17:33:55.149Z,20.40
2023-01-03T17:36:29.954Z,25.10
2023-01-03T17:39:03.119Z,19.80
2023-01-03T17:41:51.819Z,20.50
2023-01-03T17:44:20.377Z,18.90
2023-01-03T17:47:07.710Z,26.80
2023-01-03T17:49:36.429Z,26.90
2023-01-03T17:52:07.432Z,30.10
2023-01-03T17:54:41.320Z,31.70
2023-01-03T17:57:14.177Z,42.70
2023-01-03T17:59:43.852Z,51.10
2023-01-03T18:02:22.889Z,50.90
2023-01-03T18:07:42.202Z,56.90
2023-01-03T18:10:40.125Z,56.80
2023-01-03T18:13:24.742Z,48.90
2023-01-03T18:15:54.568Z,35.60
2023-01-03T18:18:25.639Z,57.30
2023-01-03T18:20:55.421Z,39.60
2023-01-03T18:23:42.126Z,28.90
2023-01-03T18:26:16.469Z,25.30
2023-01-03T18:28:45.167Z,19.30
2023-01-03T18:31:16.720Z,24.60
2023-01-03T18:33:45.559Z,18.50
2023-01-03T18:36:26.946Z,20.00
2023-01-03T18:39:04.848Z,22.20
2023-01-03T18:41:34.500Z,36.10
2023-01-03T18:44:03.612Z,72.40
2023-01-03T18:46:33.335Z,44.90
2023-01-03T18:49:02.240Z,60.40
2023-01-03T18:51:31.515Z,44.40
2023-01-03T18:54:00.836Z,37.60
2023-01-03T18:56:35.634Z,47.10
2023-01-03T18:59:34.592Z,55.10
2023-01-03T19:02:03.302Z,55.30
2023-01-03T19:04:31.928Z,44.20
2023-01-03T19:07:01.114Z,40.30
2023-01-03T19:09:30.111Z,40.80
2023-01-03T19:11:58.871Z,42.40
2023-01-03T19:14:27.662Z,40.20
2023-01-03T19:16:56.287Z,40.80
2023-01-03T19:19:24.834Z,38.00
2023-01-03T19:21:53.564Z,38.70
2023-01-03T19:24:36.246Z,35.10
2023-01-03T19:27:21.313Z,36.50
2023-01-03T19:29:53.511Z,32.10
2023-01-03T19:32:28.703Z,35.00
2023-01-03T19:34:57.441Z,30.00
2023-01-03T19:37:26.279Z,27.20
2023-01-03T19:39:54.970Z,20.10
2023-01-03T19:42:42.800Z,22.10
2023-01-03T19:45:29.741Z,20.50
2023-01-03T19:48:02.641Z,19.20
2023-01-03T19:50:34.543Z,23.10
2023-01-03T19:53:03.991Z,20.50
2023-01-03T19:55:39.073Z,16.60
2023-01-03T19:58:21.048Z,17.50
2023-01-03T20:00:52.522Z,18.60
2023-01-03T20:03:35.770Z,11.10
2023-01-03T20:06:07.435Z,12.50
2023-01-03T20:08:38.817Z,12.60
2023-01-03T20:11:42.869Z,12.80
2023-01-03T20:14:21.441Z,8.30
2023-01-03T20:16:50.617Z,12.00
2023-01-03T20:19:21.650Z,11.90
2023-01-03T20:21:54.301Z,11.40
2023-01-03T20:24:28.289Z,9.70
2023-01-03T20:26:58.329Z,10.20
2023-01-03T20:29:29.686Z,10.50
2023-01-03T20:31:59.571Z,12.90
2023-01-03T20:34:29.249Z,10.90
2023-01-03T20:37:01.792Z,16.00
2023-01-03T20:39:37.575Z,13.70
2023-01-03T20:42:21.682Z,11.90
2023-01-03T20:44:51.679Z,10.40
2023-01-03T20:47:25.414Z,13.10
2023-01-03T20:49:54.764Z,11.50
2023-01-03T20:52:23.687Z,12.30
2023-01-03T20:54:52.826Z,10.40
2023-01-03T20:57:23.179Z,8.90
2023-01-03T20:59:52.093Z,12.60
2023-01-03T21:02:22.264Z,11.50
2023-01-03T21:04:52.190Z,10.30
2023-01-03T21:07:50.446Z,12.20
2023-01-03T21:10:27.410Z,12.90
2023-01-03T21:12:59.989Z,13.10
2023-01-03T21:15:29.239Z,16.10
2023-01-03T21:17:59.714Z,12.10
2023-01-03T21:20:31.273Z,10.70
2023-01-03T21:22:59.917Z,12.20
2023-01-03T21:25:39.128Z,11.80
2023-01-03T21:28:10.091Z,16.10
2023-01-03T21:30:40.499Z,14.60
2023-01-03T21:33:19.847Z,23.20
2023-01-03T21:35:51.483Z,23.10
2023-01-03T21:38:20.983Z,19.10
2023-01-03T21:40:50.700Z,26.60
2023-01-03T21:43:19.503Z,26.50
2023-01-03T21:45:51.027Z,27.40
2023-01-03T21:48:20.302Z,26.20
2023-01-03T21:50:52.667Z,26.40
2023-01-03T21:53:23.422Z,30.10
2023-01-03T21:55:52.013Z,28.30
2023-01-03T21:58:22.439Z,31.20
2023-01-03T22:00:51.122Z,28.40
2023-01-03T22:03:38.591Z,31.30
2023-01-03T22:06:13.108Z,31.20
2023-01-03T22:08:41.700Z,33.60
2023-01-03T22:11:16.392Z,33.20
2023-01-03T22:13:45.623Z,32.50
2023-01-03T22:16:14.483Z,41.00
2023-01-03T22:18:43.136Z,47.20
2023-01-03T22:21:12.646Z,48.20
2023-01-03T22:23:41.348Z,80.40
2023-01-03T22:26:12.768Z,72.80
2023-01-03T22:28:44.002Z,112.30
2023-01-03T22:31:16.641Z,104.40
2023-01-03T22:33:47.230Z,77.00
2023-01-03T22:36:16.830Z,83.40
2023-01-03T22:38:45.413Z,124.50
2023-01-03T22:41:16.862Z,88.80
2023-01-03T22:43:46.769Z,83.20
2023-01-03T22:46:17.333Z,83.80
2023-01-03T22:48:45.951Z,105.00
2023-01-03T22:51:16.716Z,106.00
2023-01-03T22:53:46.499Z,87.50
2023-01-03T22:56:17.676Z,90.50
2023-01-03T22:58:46.866Z,76.00
2023-01-03T23:01:20.693Z,50.20
2023-01-03T23:03:49.518Z,34.20
2023-01-03T23:06:20.608Z,48.40
2023-01-03T23:08:52.056Z,47.60
2023-01-03T23:11:52.040Z,54.70
2023-01-03T23:14:23.280Z,38.50
2023-01-03T23:16:52.956Z,38.10
2023-01-03T23:19:25.439Z,35.80
2023-01-03T23:21:54.473Z,34.90
2023-01-03T23:24:25.455Z,34.00
2023-01-03T23:26:54.546Z,34.10
2023-01-03T23:29:23.219Z,31.20
2023-01-03T23:31:53.054Z,38.50
2023-01-03T23:34:21.588Z,32.40
2023-01-03T23:36:50.062Z,33.30
2023-01-03T23:39:19.342Z,37.10
2023-01-03T23:41:48.407Z,30.70
2023-01-03T23:44:17.143Z,31.00
2023-01-03T23:46:45.665Z,34.30
2023-01-03T23:49:16.566Z,29.50
2023-01-03T23:51:45.079Z,32.70
2023-01-03T23:54:13.679Z,31.60
2023-01-03T23:56:42.242Z,34.60
2023-01-03T23:59:10.763Z,44.40
